createdAt,value
2022-10-06T00:01:14.467Z,94.84
2022-10-06T00:03:44.108Z,95.20
2022-10-06T00:06:14.609Z,95.41
2022-10-06T00:08:44.310Z,95.57
2022-10-06T00:11:15.049Z,95.99
2022-10-06T00:13:43.576Z,95.89
2022-10-06T00:16:17.558Z,96.08
2022-10-06T00:18:46.729Z,95.86
2022-10-06T00:21:15.412Z,95.76
2022-10-06T00:23:43.943Z,96.01
2022-10-06T00:26:16.828Z,96.44
2022-10-06T00:28:48.297Z,96.56
2022-10-06T00:31:19.569Z,96.98
2022-10-06T00:33:49.984Z,96.70
2022-10-06T00:36:18.605Z,96.68
2022-10-06T00:38:47.157Z,96.95
2022-10-06T00:41:18.211Z,96.90
2022-10-06T00:43:52.112Z,96.54
2022-10-06T00:46:33.816Z,96.22
2022-10-06T00:49:07.568Z,96.21
2022-10-06T00:51:40.357Z,96.21
2022-10-06T00:54:09.140Z,96.07
2022-10-06T00:56:40.212Z,95.82
2022-10-06T00:59:11.367Z,95.39
2022-10-06T01:01:43.984Z,95.16
2022-10-06T01:04:17.941Z,94.32
2022-10-06T01:06:50.193Z,94.78
2022-10-06T01:09:19.808Z,94.03
2022-10-06T01:11:51.824Z,93.91
2022-10-06T01:14:22.598Z,93.84
2022-10-06T01:16:57.449Z,93.65
2022-10-06T01:19:38.530Z,93.79
2022-10-06T01:22:08.765Z,93.75
2022-10-06T01:24:38.796Z,93.59
2022-10-06T01:27:11.388Z,92.88
2022-10-06T01:29:40.367Z,93.39
2022-10-06T01:32:09.308Z,92.86
2022-10-06T01:34:38.111Z,92.54
2022-10-06T01:37:06.624Z,92.68
2022-10-06T01:39:35.113Z,92.44
2022-10-06T01:42:05.233Z,92.39
2022-10-06T01:44:33.762Z,92.66
2022-10-06T01:47:02.416Z,92.45
2022-10-06T01:49:31.103Z,92.56
2022-10-06T01:51:59.725Z,92.58
2022-10-06T01:54:28.233Z,92.98
2022-10-06T01:56:56.738Z,92.99
2022-10-06T01:59:26.820Z,93.18
2022-10-06T02:01:55.911Z,93.10
2022-10-06T02:04:24.799Z,93.74
2022-10-06T02:06:55.510Z,93.41
2022-10-06T02:09:24.597Z,94.20
2022-10-06T02:11:53.149Z,93.68
2022-10-06T02:14:21.631Z,94.67
2022-10-06T02:16:51.800Z,94.93
2022-10-06T02:19:20.730Z,95.13
2022-10-06T02:21:49.260Z,95.57
2022-10-06T02:24:17.743Z,96.20
2022-10-06T02:26:46.737Z,96.56
2022-10-06T02:29:15.679Z,96.86
2022-10-06T02:31:44.823Z,97.23
2022-10-06T02:34:15.187Z,97.32
2022-10-06T02:36:43.664Z,97.53
2022-10-06T02:39:12.269Z,97.62
2022-10-06T02:41:40.776Z,97.87
2022-10-06T02:44:09.253Z,98.14
2022-10-06T02:46:37.819Z,97.98
2022-10-06T02:49:06.336Z,98.28
2022-10-06T02:51:36.252Z,98.40
2022-10-06T02:54:04.851Z,98.87
2022-10-06T02:56:33.324Z,98.77
2022-10-06T02:59:01.826Z,98.94
2022-10-06T03:01:30.743Z,98.79
2022-10-06T03:03:59.452Z,99.04
2022-10-06T03:06:29.909Z,99.35
2022-10-06T03:09:01.801Z,99.50
2022-10-06T03:11:32.256Z,99.00
2022-10-06T03:14:01.188Z,99.34
2022-10-06T03:16:32.097Z,99.54
2022-10-06T03:19:01.691Z,99.18
2022-10-06T03:21:31.984Z,99.08
2022-10-06T03:24:02.112Z,99.17
2022-10-06T03:26:32.728Z,99.38
2022-10-06T03:29:01.361Z,98.82
2022-10-06T03:31:30.434Z,98.84
2022-10-06T03:33:59.252Z,98.95
2022-10-06T03:36:29.926Z,98.09
2022-10-06T03:38:58.443Z,97.82
2022-10-06T03:41:29.820Z,97.14
2022-10-06T03:44:00.558Z,97.56
2022-10-06T03:46:30.989Z,96.98
2022-10-06T03:49:00.672Z,97.68
2022-10-06T03:51:31.363Z,98.92
2022-10-06T03:54:00.792Z,100.00
2022-10-06T03:56:32.782Z,100.00
2022-10-06T03:59:03.192Z,100.00
2022-10-06T04:01:33.543Z,100.00
2022-10-06T04:04:03.470Z,100.00
2022-10-06T04:06:34.823Z,99.05
2022-10-06T04:09:04.616Z,99.14
2022-10-06T04:11:37.669Z,98.18
2022-10-06T04:14:08.417Z,98.48
2022-10-06T04:16:38.730Z,99.35
2022-10-06T04:19:10.352Z,98.86
2022-10-06T04:21:40.677Z,98.94
2022-10-06T04:24:10.825Z,98.78
2022-10-06T04:26:45.091Z,98.79
2022-10-06T04:29:13.368Z,98.55
2022-10-06T04:31:43.372Z,94.22
2022-10-06T04:34:13.418Z,90.36
2022-10-06T04:36:43.699Z,89.95
2022-10-06T04:39:13.400Z,88.42
2022-10-06T04:41:46.688Z,82.88
2022-10-06T04:44:15.180Z,79.94
2022-10-06T04:46:44.954Z,80.75
2022-10-06T04:49:19.917Z,79.38
2022-10-06T04:51:50.030Z,78.16
2022-10-06T04:54:19.680Z,78.66
2022-10-06T04:56:49.851Z,79.18
2022-10-06T04:59:18.520Z,79.76
2022-10-06T05:01:47.033Z,80.28
2022-10-06T05:04:15.575Z,80.06
2022-10-06T05:06:44.316Z,79.94
2022-10-06T05:09:14.710Z,78.31
2022-10-06T05:11:43.398Z,78.16
2022-10-06T05:14:13.276Z,77.97
2022-10-06T05:16:43.109Z,76.79
2022-10-06T05:19:11.815Z,76.97
2022-10-06T05:21:40.545Z,77.17
2022-10-06T05:24:09.304Z,77.14
2022-10-06T05:26:37.880Z,74.47
2022-10-06T05:29:06.541Z,74.52
2022-10-06T05:31:38.981Z,74.57
2022-10-06T05:34:08.260Z,75.46
2022-10-06T05:36:36.875Z,75.88
2022-10-06T05:39:05.585Z,77.12
2022-10-06T05:41:35.013Z,77.16
2022-10-06T05:44:03.664Z,78.48
2022-10-06T05:46:34.056Z,78.84
2022-10-06T05:49:07.166Z,78.61
2022-10-06T05:51:40.159Z,77.82
2022-10-06T05:54:08.885Z,76.69
2022-10-06T05:56:38.728Z,77.25
2022-10-06T05:59:07.779Z,75.88
2022-10-06T06:01:39.869Z,75.78
2022-10-06T06:04:11.687Z,75.86
2022-10-06T06:06:41.184Z,74.77
2022-10-06T06:09:11.581Z,75.76
2022-10-06T06:11:42.372Z,74.55
2022-10-06T06:14:13.086Z,74.83
2022-10-06T06:16:42.030Z,75.40
2022-10-06T06:19:13.610Z,76.29
2022-10-06T06:21:42.191Z,75.79
2022-10-06T06:24:10.728Z,75.98
2022-10-06T06:26:39.349Z,75.59
2022-10-06T06:29:07.898Z,76.30
2022-10-06T06:31:38.492Z,75.98
2022-10-06T06:34:08.286Z,75.76
2022-10-06T06:36:41.202Z,76.64
2022-10-06T06:39:11.304Z,76.62
2022-10-06T06:41:41.782Z,76.83
2022-10-06T06:44:11.582Z,77.45
2022-10-06T06:46:43.205Z,77.52
2022-10-06T06:49:12.288Z,77.31
2022-10-06T06:51:43.844Z,77.69
2022-10-06T06:54:13.129Z,77.59
2022-10-06T06:56:42.487Z,77.74
2022-10-06T06:59:12.254Z,78.41
2022-10-06T07:01:44.397Z,78.80
2022-10-06T07:04:14.838Z,79.61
2022-10-06T07:06:47.598Z,78.97
2022-10-06T07:09:16.132Z,79.26
2022-10-06T07:11:44.718Z,78.70
2022-10-06T07:14:13.457Z,79.15
2022-10-06T07:16:59.273Z,79.77
2022-10-06T07:19:53.508Z,79.19
2022-10-06T07:22:44.070Z,79.40
2022-10-06T07:25:25.063Z,79.67
2022-10-06T07:27:54.605Z,79.58
2022-10-06T07:30:24.413Z,80.31
2022-10-06T07:32:53.734Z,80.28
2022-10-06T07:35:24.955Z,80.57
2022-10-06T07:37:55.092Z,81.25
2022-10-06T07:40:23.726Z,81.17
2022-10-06T07:42:52.984Z,81.15
2022-10-06T07:45:39.568Z,79.08
2022-10-06T07:48:10.602Z,79.98
2022-10-06T07:50:40.438Z,79.53
2022-10-06T07:53:10.685Z,79.67
2022-10-06T07:55:40.282Z,78.41
2022-10-06T07:58:12.363Z,78.47
2022-10-06T08:00:41.341Z,77.13
2022-10-06T08:03:10.419Z,77.85
2022-10-06T08:05:39.213Z,78.04
2022-10-06T08:08:08.076Z,74.84
2022-10-06T08:10:38.023Z,75.28
2022-10-06T08:13:07.288Z,76.15
2022-10-06T08:15:36.468Z,75.19
2022-10-06T08:18:16.499Z,74.30
2022-10-06T08:20:54.428Z,73.29
2022-10-06T08:23:22.930Z,72.49
2022-10-06T08:25:54.384Z,72.72
2022-10-06T08:28:24.508Z,72.94
2022-10-06T08:30:55.575Z,71.15
2022-10-06T08:33:24.168Z,70.03
2022-10-06T08:35:52.747Z,69.75
2022-10-06T08:38:21.918Z,70.00
2022-10-06T08:40:52.055Z,68.67
2022-10-06T08:43:24.966Z,68.01
2022-10-06T08:46:00.336Z,67.27
2022-10-06T08:48:38.730Z,67.20
2022-10-06T08:51:19.783Z,64.87
2022-10-06T08:53:59.567Z,63.62
2022-10-06T08:56:34.947Z,62.77
2022-10-06T08:59:05.345Z,62.78
2022-10-06T09:01:42.113Z,63.52
2022-10-06T09:04:17.133Z,63.41
2022-10-06T09:06:51.380Z,63.34
2022-10-06T09:09:26.166Z,63.29
2022-10-06T09:12:04.911Z,63.32
2022-10-06T09:14:39.171Z,63.34
2022-10-06T09:17:11.041Z,63.74
2022-10-06T09:19:47.395Z,62.77
2022-10-06T09:22:20.780Z,63.31
2022-10-06T09:24:55.158Z,63.24
2022-10-06T09:27:32.458Z,63.16
2022-10-06T09:30:04.560Z,61.39
2022-10-06T09:32:34.950Z,60.72
2022-10-06T09:35:17.745Z,60.77
2022-10-06T09:37:57.732Z,59.93
2022-10-06T09:40:40.316Z,60.21
2022-10-06T09:43:21.546Z,60.89
2022-10-06T09:45:51.671Z,60.15
2022-10-06T09:48:24.965Z,59.72
2022-10-06T09:51:09.362Z,60.58
2022-10-06T09:53:39.695Z,59.12
2022-10-06T09:56:15.758Z,58.52
2022-10-06T09:58:57.288Z,58.42
2022-10-06T10:01:28.290Z,58.57
2022-10-06T10:04:20.923Z,59.56
2022-10-06T10:06:49.407Z,56.63
2022-10-06T10:09:26.103Z,56.23
2022-10-06T10:12:31.401Z,55.01
2022-10-06T10:15:04.852Z,54.62
2022-10-06T10:17:41.191Z,53.24
2022-10-06T10:20:28.324Z,51.08
2022-10-06T10:22:58.795Z,52.26
2022-10-06T10:25:55.850Z,51.78
2022-10-06T10:28:47.090Z,51.06
2022-10-06T10:31:25.960Z,49.90
2022-10-06T10:34:12.380Z,48.15
2022-10-06T10:36:50.954Z,48.86
2022-10-06T10:39:29.816Z,50.22
2022-10-06T10:42:03.031Z,51.68
2022-10-06T10:44:36.329Z,51.57
2022-10-06T10:47:19.364Z,52.22
2022-10-06T10:49:55.019Z,50.37
2022-10-06T10:52:30.594Z,50.32
2022-10-06T10:55:16.225Z,51.08
2022-10-06T10:57:46.993Z,51.73
2022-10-06T11:00:20.933Z,51.98
2022-10-06T11:02:53.757Z,51.57
2022-10-06T11:05:36.863Z,51.59
2022-10-06T11:08:13.269Z,50.24
2022-10-06T11:10:49.279Z,51.42
2022-10-06T11:13:26.811Z,49.64
2022-10-06T11:16:17.049Z,50.71
2022-10-06T11:19:05.499Z,51.25
2022-10-06T11:21:39.774Z,52.01
2022-10-06T11:24:16.688Z,51.13
2022-10-06T11:27:08.644Z,50.94
2022-10-06T11:29:48.258Z,51.14
2022-10-06T11:32:29.128Z,50.59
2022-10-06T11:35:00.108Z,49.01
2022-10-06T11:37:40.237Z,48.34
2022-10-06T11:40:33.500Z,48.59
2022-10-06T11:43:10.634Z,47.43
2022-10-06T11:45:48.090Z,46.11
2022-10-06T11:48:25.195Z,45.23
2022-10-06T11:50:58.179Z,44.98
2022-10-06T11:53:39.183Z,44.29
2022-10-06T11:56:41.412Z,45.52
2022-10-06T11:59:28.513Z,46.02
2022-10-06T12:02:02.141Z,45.45
2022-10-06T12:04:31.367Z,45.00
2022-10-06T12:07:03.678Z,44.61
2022-10-06T12:09:53.493Z,43.51
2022-10-06T12:13:31.773Z,43.03
2022-10-06T12:19:16.998Z,42.11
2022-10-06T12:21:55.017Z,41.72
2022-10-06T12:24:36.981Z,42.37
2022-10-06T12:27:27.411Z,41.84
2022-10-06T12:30:03.974Z,42.00
2022-10-06T12:32:47.544Z,41.11
2022-10-06T12:35:26.062Z,40.85
2022-10-06T12:37:55.435Z,39.38
2022-10-06T12:40:50.577Z,39.29
2022-10-06T12:44:06.015Z,39.46
2022-10-06T12:46:38.246Z,38.64
2022-10-06T12:49:45.267Z,38.39
2022-10-06T12:52:48.341Z,38.46
2022-10-06T12:55:40.320Z,38.98
2022-10-06T12:58:19.940Z,38.59
2022-10-06T13:00:50.112Z,38.69
2022-10-06T13:03:20.632Z,38.52
2022-10-06T13:05:54.544Z,38.91
2022-10-06T13:08:25.277Z,39.39
2022-10-06T13:11:12.446Z,39.76
2022-10-06T13:13:50.337Z,40.69
2022-10-06T13:16:22.297Z,40.96
2022-10-06T13:18:56.321Z,40.77
2022-10-06T13:21:25.569Z,42.19
2022-10-06T13:23:54.195Z,43.29
2022-10-06T13:26:24.535Z,43.48
2022-10-06T13:28:55.971Z,44.42
2022-10-06T13:31:27.091Z,44.53
2022-10-06T13:33:58.419Z,44.83
2022-10-06T13:36:28.830Z,45.34
2022-10-06T13:38:58.186Z,45.85
2022-10-06T13:41:31.675Z,46.13
2022-10-06T13:44:05.928Z,46.17
2022-10-06T13:46:41.239Z,45.25
2022-10-06T13:49:19.100Z,45.54
2022-10-06T13:51:50.878Z,46.11
2022-10-06T13:54:25.866Z,45.87
2022-10-06T13:56:54.521Z,45.39
2022-10-06T13:59:38.644Z,45.14
2022-10-06T14:02:24.568Z,44.49
2022-10-06T14:05:31.808Z,44.12
2022-10-06T14:08:02.303Z,45.32
2022-10-06T14:10:35.571Z,45.15
2022-10-06T14:13:09.048Z,45.00
2022-10-06T14:15:49.420Z,45.45
2022-10-06T14:18:22.127Z,45.91
2022-10-06T14:20:51.818Z,44.76
2022-10-06T14:23:42.344Z,45.16
2022-10-06T14:26:13.672Z,45.66
2022-10-06T14:28:47.415Z,45.31
2022-10-06T14:31:17.699Z,46.07
2022-10-06T14:33:48.120Z,44.88
2022-10-06T14:36:19.659Z,44.56
2022-10-06T14:38:49.863Z,45.03
2022-10-06T14:41:20.528Z,45.13
2022-10-06T14:43:49.427Z,46.29
2022-10-06T14:46:19.618Z,46.19
2022-10-06T14:48:48.397Z,46.97
2022-10-06T14:51:17.743Z,46.95
2022-10-06T14:53:54.927Z,46.13
2022-10-06T14:56:25.796Z,46.99
2022-10-06T14:58:54.966Z,46.62
2022-10-06T15:01:27.216Z,47.24
2022-10-06T15:03:58.955Z,46.85
2022-10-06T15:06:46.012Z,46.72
2022-10-06T15:09:15.766Z,47.31
2022-10-06T15:11:44.998Z,47.03
2022-10-06T15:14:14.180Z,47.29
2022-10-06T15:16:44.766Z,47.35
2022-10-06T15:19:14.480Z,47.58
2022-10-06T15:21:45.430Z,47.47
2022-10-06T15:24:16.368Z,47.27
2022-10-06T15:27:03.670Z,47.74
2022-10-06T15:29:33.635Z,48.09
2022-10-06T15:32:06.572Z,47.62
2022-10-06T15:34:37.662Z,47.88
2022-10-06T15:37:06.988Z,47.80
2022-10-06T15:39:37.395Z,47.39
2022-10-06T15:42:06.664Z,47.86
2022-10-06T15:44:35.712Z,48.09
2022-10-06T15:47:07.219Z,47.80
2022-10-06T15:49:40.544Z,48.52
2022-10-06T15:52:12.286Z,49.01
2022-10-06T15:54:42.443Z,48.82
2022-10-06T15:57:17.924Z,49.17
2022-10-06T15:59:48.373Z,49.38
2022-10-06T16:02:20.185Z,49.95
2022-10-06T16:05:16.713Z,50.50
2022-10-06T16:07:45.396Z,50.61
2022-10-06T16:10:14.060Z,49.85
2022-10-06T16:12:42.717Z,50.47
2022-10-06T16:15:11.960Z,50.96
2022-10-06T16:17:42.409Z,50.79
2022-10-06T16:20:11.706Z,50.93
2022-10-06T16:22:40.819Z,50.91
2022-10-06T16:25:10.306Z,51.20
2022-10-06T16:27:39.473Z,51.75
2022-10-06T16:30:09.709Z,51.80
2022-10-06T16:32:38.377Z,52.22
2022-10-06T16:35:11.020Z,52.58
2022-10-06T16:37:44.394Z,52.46
2022-10-06T16:40:13.008Z,53.01
2022-10-06T16:42:43.382Z,53.33
2022-10-06T16:45:14.680Z,53.55
2022-10-06T16:47:43.352Z,53.98
2022-10-06T16:50:13.336Z,53.51
2022-10-06T16:52:42.055Z,54.02
2022-10-06T16:55:10.566Z,54.13
2022-10-06T16:57:39.313Z,54.22
2022-10-06T17:00:08.957Z,54.67
2022-10-06T17:02:38.771Z,55.02
2022-10-06T17:05:08.088Z,54.97
2022-10-06T17:07:38.137Z,55.08
2022-10-06T17:10:20.129Z,55.39
2022-10-06T17:12:49.685Z,55.83
2022-10-06T17:15:18.507Z,55.76
2022-10-06T17:17:47.047Z,56.17
2022-10-06T17:20:15.778Z,56.25
2022-10-06T17:22:45.859Z,57.02
2022-10-06T17:25:15.356Z,58.21
2022-10-06T17:27:44.000Z,58.74
2022-10-06T17:30:15.489Z,60.57
2022-10-06T17:32:47.018Z,61.17
2022-10-06T17:35:15.720Z,61.77
2022-10-06T17:37:45.952Z,63.23
2022-10-06T17:40:14.629Z,63.83
2022-10-06T17:42:43.636Z,65.47
2022-10-06T17:45:12.296Z,66.67
2022-10-06T17:47:41.584Z,65.56
2022-10-06T17:50:10.537Z,64.92
2022-10-06T17:52:39.465Z,65.02
2022-10-06T17:55:10.645Z,65.21
2022-10-06T17:57:40.111Z,65.64
2022-10-06T18:00:09.983Z,66.78
2022-10-06T18:02:40.569Z,66.39
2022-10-06T18:05:09.651Z,66.74
2022-10-06T18:07:38.540Z,66.69
2022-10-06T18:10:26.449Z,67.12
2022-10-06T18:12:55.176Z,68.38
2022-10-06T18:15:23.934Z,67.89
2022-10-06T18:17:52.602Z,67.35
2022-10-06T18:20:21.576Z,67.53
2022-10-06T18:22:50.345Z,67.85
2022-10-06T18:25:26.524Z,67.21
2022-10-06T18:27:56.203Z,67.00
2022-10-06T18:30:29.433Z,67.41
2022-10-06T18:35:08.683Z,68.67
2022-10-06T18:38:43.698Z,69.28
2022-10-06T18:41:16.270Z,69.13
2022-10-06T18:43:45.450Z,68.75
2022-10-06T18:46:32.998Z,68.39
2022-10-06T18:49:05.928Z,68.95
2022-10-06T18:51:36.657Z,69.48
2022-10-06T18:54:08.123Z,70.50
2022-10-06T18:56:39.160Z,70.53
2022-10-06T18:59:10.494Z,70.06
2022-10-06T19:01:41.297Z,70.63
2022-10-06T19:04:11.007Z,70.54
2022-10-06T19:06:42.479Z,70.71
2022-10-06T19:09:13.939Z,71.93
2022-10-06T19:11:51.923Z,72.28
2022-10-06T19:14:22.512Z,72.30
2022-10-06T19:16:54.440Z,71.88
2022-10-06T19:19:25.930Z,72.01
2022-10-06T19:21:59.569Z,72.11
2022-10-06T19:24:31.236Z,72.46
2022-10-06T19:27:01.738Z,71.98
2022-10-06T19:29:36.855Z,71.86
2022-10-06T19:32:07.575Z,71.39
2022-10-06T19:34:38.369Z,71.42
2022-10-06T19:37:08.096Z,70.83
2022-10-06T19:39:42.781Z,70.54
2022-10-06T19:42:30.917Z,70.58
2022-10-06T19:44:59.532Z,70.56
2022-10-06T19:47:28.668Z,71.74
2022-10-06T19:50:02.097Z,72.30
2022-10-06T19:52:32.301Z,72.40
2022-10-06T19:55:01.304Z,71.89
2022-10-06T19:57:32.703Z,72.57
2022-10-06T20:00:01.262Z,72.87
2022-10-06T20:02:30.116Z,72.84
2022-10-06T20:04:58.668Z,73.02
2022-10-06T20:07:27.967Z,73.51
2022-10-06T20:09:56.824Z,73.21
2022-10-06T20:12:26.983Z,74.02
2022-10-06T20:14:57.584Z,74.45
2022-10-06T20:17:26.391Z,74.21
2022-10-06T20:19:57.799Z,74.01
2022-10-06T20:22:26.766Z,73.60
2022-10-06T20:24:55.358Z,73.58
2022-10-06T20:27:23.936Z,74.14
2022-10-06T20:29:53.039Z,73.84
2022-10-06T20:32:23.214Z,73.77
2022-10-06T20:34:51.748Z,74.75
2022-10-06T20:37:20.329Z,75.12
2022-10-06T20:40:05.271Z,74.84
2022-10-06T20:42:33.810Z,75.18
2022-10-06T20:45:02.277Z,75.02
2022-10-06T20:47:32.419Z,75.35
2022-10-06T20:50:00.988Z,75.78
2022-10-06T20:52:30.238Z,75.91
2022-10-06T20:54:58.766Z,76.11
2022-10-06T20:57:33.494Z,76.84
2022-10-06T21:00:02.385Z,75.84
2022-10-06T21:02:33.303Z,75.53
2022-10-06T21:05:02.286Z,75.35
2022-10-06T21:07:30.793Z,76.25
2022-10-06T21:09:59.439Z,76.12
2022-10-06T21:12:28.481Z,76.08
2022-10-06T21:14:57.466Z,76.17
2022-10-06T21:17:25.925Z,75.84
2022-10-06T21:19:55.806Z,76.11
2022-10-06T21:22:24.294Z,75.22
2022-10-06T21:24:52.814Z,75.46
2022-10-06T21:27:21.349Z,75.43
2022-10-06T21:29:50.085Z,75.55
2022-10-06T21:32:18.601Z,76.45
2022-10-06T21:34:47.593Z,77.37
2022-10-06T21:37:17.847Z,78.29
2022-10-06T21:39:46.298Z,78.20
2022-10-06T21:42:14.769Z,79.30
2022-10-06T21:44:43.265Z,79.10
2022-10-06T21:47:13.755Z,79.35
2022-10-06T21:49:44.342Z,79.55
2022-10-06T21:52:14.451Z,79.70
2022-10-06T21:54:44.918Z,80.44
2022-10-06T21:57:15.413Z,79.53
2022-10-06T21:59:43.902Z,79.30
2022-10-06T22:02:12.425Z,79.27
2022-10-06T22:04:41.813Z,78.79
2022-10-06T22:07:10.298Z,78.65
2022-10-06T22:09:38.798Z,79.29
2022-10-06T22:12:08.647Z,79.56
2022-10-06T22:14:37.151Z,80.70
2022-10-06T22:17:05.627Z,80.30
2022-10-06T22:19:34.222Z,80.91
2022-10-06T22:22:02.723Z,81.16
2022-10-06T22:24:31.226Z,81.86
2022-10-06T22:26:59.843Z,82.25
2022-10-06T22:29:29.878Z,82.37
2022-10-06T22:31:58.811Z,83.05
2022-10-06T22:34:28.500Z,83.26
2022-10-06T22:36:56.977Z,83.60
2022-10-06T22:39:25.450Z,83.43
2022-10-06T22:41:53.895Z,82.62
2022-10-06T22:44:22.351Z,83.35
2022-10-06T22:46:52.272Z,83.44
2022-10-06T22:49:20.966Z,83.46
2022-10-06T22:51:49.490Z,83.15
2022-10-06T22:54:22.157Z,83.47
2022-10-06T22:56:50.642Z,82.86
2022-10-06T22:59:19.086Z,83.60
2022-10-06T23:01:47.550Z,83.68
2022-10-06T23:04:17.915Z,84.21
2022-10-06T23:06:46.396Z,84.28
2022-10-06T23:09:15.095Z,84.42
2022-10-06T23:11:43.559Z,84.36
2022-10-06T23:14:12.041Z,84.36
2022-10-06T23:16:40.588Z,84.63
2022-10-06T23:19:09.088Z,84.23
2022-10-06T23:21:40.251Z,84.42
2022-10-06T23:24:08.818Z,84.89
2022-10-06T23:26:37.314Z,85.00
2022-10-06T23:29:07.244Z,85.77
2022-10-06T23:31:35.775Z,86.10
2022-10-06T23:34:04.329Z,86.19
2022-10-06T23:36:32.858Z,86.55
2022-10-06T23:39:02.758Z,86.65
2022-10-06T23:41:31.255Z,86.94
2022-10-06T23:43:59.822Z,86.54
2022-10-06T23:46:28.284Z,87.01
2022-10-06T23:48:56.737Z,87.51
2022-10-06T23:51:25.240Z,87.78
2022-10-06T23:53:53.962Z,88.31
2022-10-06T23:56:23.894Z,88.13
2022-10-06T23:58:52.395Z,89.06
